Time;durP1;ratioP1;P1;durP2;ratioP2;P2;SDS_P1;SDS_P2;PMS_P1;PMS_P2;Temp;Humidity;BMP_temperature;BMP_pressure;BME280_temperature;BME280_humidity;BME280_pressure;Samples;Min_cycle;Max_cycle;Signal;HPM_P1;HPM_P2
2022/09/19 00:01:16;;;;;;;15.13;2.30;;;12.90;99.90;;;;;;5054517;28;20029;-75
2022/09/19 00:03:57;;;;;;;13.68;1.77;;;12.90;99.90;;;;;;5054336;28;20037;-75
2022/09/19 00:06:23;;;;;;;17.07;2.13;;;12.90;99.90;;;;;;5054153;28;20123;-75
2022/09/19 00:08:50;;;;;;;12.77;2.33;;;12.80;99.90;;;;;;5054462;28;20031;-75
2022/09/19 00:11:19;;;;;;;10.52;1.77;;;12.80;99.90;;;;;;5058595;28;20056;-76
2022/09/19 00:13:47;;;;;;;11.85;1.85;;;12.90;99.90;;;;;;5064407;28;20108;-75
2022/09/19 00:16:23;;;;;;;10.82;2.38;;;12.90;99.90;;;;;;5061839;28;20017;-75
2022/09/19 00:18:51;;;;;;;14.10;1.67;;;12.90;99.90;;;;;;5054178;28;20032;-75
2022/09/19 00:21:21;;;;;;;12.30;1.95;;;13.00;99.90;;;;;;5054092;28;20057;-74
2022/09/19 00:26:31;;;;;;;11.20;2.38;;;13.00;99.90;;;;;;5073559;28;20023;-74
2022/09/19 00:28:56;;;;;;;15.55;3.63;;;13.00;99.90;;;;;;5074079;28;20028;-75
2022/09/19 00:31:22;;;;;;;15.80;2.97;;;13.00;99.90;;;;;;5067577;28;20032;-75
2022/09/19 00:33:48;;;;;;;15.35;4.95;;;13.00;99.90;;;;;;5063756;28;20052;-75
2022/09/19 00:36:16;;;;;;;12.27;3.30;;;13.00;99.90;;;;;;5063689;28;20032;-75
2022/09/19 00:38:42;;;;;;;16.02;2.83;;;13.00;99.90;;;;;;5058554;28;20028;-75
2022/09/19 00:41:12;;;;;;;12.82;1.75;;;13.00;99.90;;;;;;5057557;28;20028;-75
2022/09/19 00:43:56;;;;;;;10.32;2.25;;;13.10;99.90;;;;;;5073303;28;20036;-75
2022/09/19 00:46:24;;;;;;;7.05;2.30;;;13.20;99.90;;;;;;5073837;28;20037;-75
2022/09/19 00:49:05;;;;;;;12.60;2.42;;;13.20;99.90;;;;;;5073701;28;20021;-75
2022/09/19 00:51:43;;;;;;;11.75;2.55;;;13.30;99.90;;;;;;5073760;28;20032;-75
2022/09/19 00:54:17;;;;;;;6.28;1.80;;;13.40;99.90;;;;;;5073638;28;20523;-75
2022/09/19 00:56:47;;;;;;;10.63;2.28;;;13.50;99.90;;;;;;5073720;28;20542;-75
2022/09/19 00:59:14;;;;;;;6.00;1.50;;;13.50;99.90;;;;;;5073062;28;20029;-75
2022/09/19 01:01:41;;;;;;;9.23;1.80;;;13.60;99.90;;;;;;5073438;28;20060;-75
2022/09/19 01:04:18;;;;;;;10.50;2.00;;;13.60;99.90;;;;;;5073329;28;20039;-75
2022/09/19 01:06:50;;;;;;;14.02;1.98;;;13.70;99.90;;;;;;5073556;28;20033;-75
2022/09/19 01:09:21;;;;;;;;;;;13.80;99.90;;;;;;5074123;28;20048;-75
2022/09/19 01:11:56;;;;;;;8.60;1.42;;;13.80;99.90;;;;;;5073285;28;19954;-75
2022/09/19 01:14:43;;;;;;;16.35;2.03;;;13.80;99.90;;;;;;5073184;28;20098;-75
2022/09/19 01:17:16;;;;;;;14.52;1.85;;;13.90;99.90;;;;;;5072834;28;20412;-74
2022/09/19 01:19:51;;;;;;;14.38;1.80;;;13.90;99.90;;;;;;5073055;28;20024;-75
2022/09/19 01:22:54;;;;;;;11.50;1.85;;;14.00;99.90;;;;;;5073230;28;20040;-74
2022/09/19 01:25:45;;;;;;;;;;;14.00;99.90;;;;;;5073532;28;20025;-75
2022/09/19 01:28:12;;;;;;;7.57;1.52;;;14.10;99.90;;;;;;5071452;28;19904;-75
2022/09/19 01:30:46;;;;;;;13.10;1.83;;;14.10;99.90;;;;;;5072976;28;20373;-74
2022/09/19 01:33:18;;;;;;;8.43;1.23;;;14.20;99.90;;;;;;5073044;28;20127;-75
2022/09/19 01:35:50;;;;;;;11.85;1.80;;;14.20;99.90;;;;;;5072848;28;20477;-75
2022/09/19 01:38:24;;;;;;;12.00;1.95;;;14.30;99.90;;;;;;5073041;28;20035;-75
2022/09/19 01:40:51;;;;;;;10.30;1.73;;;14.30;99.90;;;;;;5072262;28;20386;-74
2022/09/19 01:43:19;;;;;;;11.10;1.42;;;14.30;99.90;;;;;;5072630;28;20054;-74
2022/09/19 01:45:45;;;;;;;16.75;2.72;;;14.40;99.90;;;;;;5072655;28;20059;-73
2022/09/19 01:48:22;;;;;;;14.90;1.80;;;14.40;99.90;;;;;;5072563;28;20047;-74
2022/09/19 01:51:13;;;;;;;12.60;1.73;;;14.40;99.90;;;;;;5072955;28;20050;-73
2022/09/19 01:53:53;;;;;;;14.05;1.77;;;14.40;99.90;;;;;;5072274;28;20025;-74
2022/09/19 01:56:36;;;;;;;10.02;1.60;;;14.40;99.90;;;;;;5071158;28;20017;-74
2022/09/19 01:59:22;;;;;;;7.03;1.35;;;14.40;99.90;;;;;;5072361;28;20025;-74
2022/09/19 02:02:12;;;;;;;13.27;1.77;;;14.40;99.90;;;;;;5072375;28;20044;-74
2022/09/19 02:04:58;;;;;;;10.32;1.85;;;14.40;99.90;;;;;;5072484;28;20052;-75
2022/09/19 02:08:04;;;;;;;11.68;1.48;;;14.40;99.90;;;;;;5072342;28;20039;-74
2022/09/19 02:10:54;;;;;;;8.95;1.48;;;14.40;99.90;;;;;;5066036;28;20032;-74
2022/09/19 02:13:24;;;;;;;13.13;1.50;;;14.50;99.90;;;;;;5072129;28;20111;-74
2022/09/19 02:15:57;;;;;;;15.57;1.75;;;14.50;99.90;;;;;;5072191;28;20039;-74
2022/09/19 02:18:26;;;;;;;16.35;1.60;;;14.50;99.90;;;;;;5071824;28;20028;-74
2022/09/19 02:21:17;;;;;;;5.15;1.02;;;14.50;99.90;;;;;;5072126;28;20024;-74
2022/09/19 02:23:48;;;;;;;9.95;1.60;;;14.50;99.90;;;;;;5072005;28;20036;-73
2022/09/19 02:26:20;;;;;;;20.52;2.83;;;14.60;99.90;;;;;;5072004;28;20033;-73
2022/09/19 02:28:48;;;;;;;;;;;14.60;99.90;;;;;;5072247;28;20222;-73
2022/09/19 02:31:14;;;;;;;14.15;1.63;;;14.60;99.90;;;;;;5071752;28;19909;-73
2022/09/19 02:33:44;;;;;;;14.70;2.28;;;14.60;99.90;;;;;;5071586;28;20425;-73
2022/09/19 02:36:32;;;;;;;12.90;2.15;;;14.60;99.90;;;;;;5071815;28;20029;-73
2022/09/19 02:39:25;;;;;;;12.05;1.50;;;14.70;99.90;;;;;;5071986;28;20056;-73
2022/09/19 02:41:57;;;;;;;10.23;1.58;;;14.70;99.90;;;;;;5071757;28;20048;-73
2022/09/19 02:44:58;;;;;;;10.48;1.90;;;14.70;99.90;;;;;;5071849;28;20025;-73
2022/09/19 02:47:33;;;;;;;13.52;2.03;;;14.70;99.90;;;;;;5071794;28;20420;-73
2022/09/19 02:50:24;;;;;;;7.45;1.70;;;14.70;99.90;;;;;;5071870;28;20021;-73
2022/09/19 02:52:53;;;;;;;10.77;2.22;;;14.70;99.90;;;;;;5072021;28;20454;-73
2022/09/19 02:55:32;;;;;;;9.50;1.35;;;14.70;99.90;;;;;;5071789;28;20190;-73
2022/09/19 02:58:02;;;;;;;7.30;1.35;;;14.70;99.90;;;;;;5072021;28;20029;-73
2022/09/19 03:00:30;;;;;;;8.75;1.30;;;14.80;99.90;;;;;;5071725;28;20025;-73
2022/09/19 03:05:59;;;;;;;10.52;1.50;;;14.80;99.90;;;;;;5071723;28;20118;-73
2022/09/19 03:08:26;;;;;;;7.60;1.25;;;14.70;99.90;;;;;;5075450;28;20115;-73
2022/09/19 03:10:57;;;;;;;6.72;1.33;;;14.70;99.90;;;;;;5075067;28;20094;-73
2022/09/19 03:13:24;;;;;;;11.70;1.88;;;14.70;99.90;;;;;;5075549;28;20166;-73
2022/09/19 03:16:00;;;;;;;13.50;1.83;;;14.70;99.90;;;;;;5075264;28;20052;-72
2022/09/19 03:18:27;;;;;;;19.00;2.05;;;14.70;99.90;;;;;;5075475;28;20469;-73
2022/09/19 03:20:58;;;;;;;14.93;1.67;;;14.70;99.90;;;;;;5075361;28;20047;-72
2022/09/19 03:23:29;;;;;;;10.98;1.80;;;14.80;99.90;;;;;;5075217;28;20048;-72
2022/09/19 03:25:55;;;;;;;13.43;1.50;;;14.70;99.90;;;;;;5075423;28;20036;-72
2022/09/19 03:28:21;;;;;;;12.68;2.17;;;14.70;99.90;;;;;;5075375;28;20633;-72
2022/09/19 03:30:47;;;;;;;8.95;1.45;;;14.70;99.90;;;;;;5075069;28;20025;-72
2022/09/19 03:33:15;;;;;;;7.93;1.30;;;14.70;99.90;;;;;;5075223;28;20369;-72
2022/09/19 03:35:42;;;;;;;9.73;1.42;;;14.70;99.90;;;;;;5074737;28;20021;-72
2022/09/19 03:38:08;;;;;;;15.15;1.85;;;14.70;99.90;;;;;;5074772;28;20219;-72
2022/09/19 03:40:34;;;;;;;8.60;1.67;;;14.70;99.90;;;;;;5074930;28;20032;-72
2022/09/19 03:43:00;;;;;;;13.85;1.98;;;14.70;99.90;;;;;;5074590;28;20458;-71
2022/09/19 03:45:26;;;;;;;8.65;1.15;;;14.70;99.90;;;;;;5074446;28;20067;-71
2022/09/19 03:47:52;;;;;;;9.85;1.65;;;14.80;99.90;;;;;;5074670;28;20028;-71
2022/09/19 03:50:17;;;;;;;10.88;1.30;;;14.80;99.90;;;;;;5074751;28;20024;-71
2022/09/19 03:52:47;;;;;;;10.00;1.30;;;14.80;99.90;;;;;;5074745;28;20051;-72
2022/09/19 03:55:13;;;;;;;12.90;1.55;;;14.80;99.90;;;;;;5074710;28;20020;-71
2022/09/19 03:57:38;;;;;;;14.05;1.65;;;14.80;99.90;;;;;;5074166;28;20048;-71
2022/09/19 04:00:04;;;;;;;11.10;1.80;;;14.80;99.90;;;;;;5074733;28;20407;-71
2022/09/19 04:02:30;;;;;;;8.52;1.23;;;14.80;99.90;;;;;;5073879;28;20124;-72
2022/09/19 04:04:56;;;;;;;14.57;1.65;;;14.80;99.90;;;;;;5074438;28;20107;-71
2022/09/19 04:07:21;;;;;;;13.27;1.85;;;14.70;99.90;;;;;;5074448;28;20029;-71
2022/09/19 04:09:47;;;;;;;8.43;1.80;;;14.70;99.90;;;;;;5072571;28;20541;-71
2022/09/19 04:12:13;;;;;;;12.85;1.55;;;14.70;99.90;;;;;;5074397;28;20024;-71
2022/09/19 04:14:39;;;;;;;4.78;1.02;;;14.70;99.90;;;;;;5074187;28;20342;-71
2022/09/19 04:17:07;;;;;;;13.40;1.45;;;14.80;99.90;;;;;;5074051;28;20490;-71
2022/09/19 04:19:33;;;;;;;6.70;1.33;;;14.80;99.90;;;;;;5073082;28;20027;-71
2022/09/19 04:22:01;;;;;;;9.70;1.55;;;14.80;99.90;;;;;;5074158;28;20036;-71
2022/09/19 04:24:29;;;;;;;10.02;1.27;;;14.80;99.90;;;;;;5074281;28;20048;-71
2022/09/19 04:26:55;;;;;;;7.90;1.48;;;14.80;99.90;;;;;;5074031;28;20036;-71
2022/09/19 04:29:20;;;;;;;12.85;2.63;;;14.80;99.90;;;;;;5074277;28;20103;-71
2022/09/19 04:31:46;;;;;;;7.00;1.52;;;14.80;99.90;;;;;;5073957;28;20040;-71
2022/09/19 04:34:13;;;;;;;9.75;1.67;;;14.80;99.90;;;;;;5073809;28;20068;-71
2022/09/19 04:36:39;;;;;;;14.48;1.85;;;14.80;99.90;;;;;;5073751;28;20020;-71
2022/09/19 04:39:06;;;;;;;13.93;2.53;;;14.90;99.90;;;;;;5073765;28;20031;-71
2022/09/19 04:41:36;;;;;;;7.50;1.85;;;14.80;99.90;;;;;;5073555;28;20458;-71
2022/09/19 04:44:04;;;;;;;11.30;1.88;;;14.80;99.90;;;;;;5073834;28;20320;-71
2022/09/19 04:46:32;;;;;;;6.80;1.35;;;14.90;99.90;;;;;;5073613;28;20362;-71
2022/09/19 04:48:58;;;;;;;10.30;2.05;;;14.80;99.90;;;;;;5073564;28;20012;-71
2022/09/19 04:51:24;;;;;;;11.57;1.60;;;14.90;99.90;;;;;;5073613;28;20047;-71
2022/09/19 04:53:51;;;;;;;7.72;1.55;;;14.90;99.90;;;;;;5073542;28;20040;-71
2022/09/19 04:56:18;;;;;;;14.05;3.25;;;14.90;99.90;;;;;;5073283;28;20017;-70
2022/09/19 04:58:44;;;;;;;13.48;2.78;;;15.00;99.90;;;;;;5073096;28;20032;-70
2022/09/19 05:01:11;;;;;;;10.40;3.00;;;15.00;99.90;;;;;;5073373;28;20024;-71
2022/09/19 05:03:37;;;;;;;15.50;3.92;;;14.90;99.90;;;;;;5073396;28;20055;-71
2022/09/19 05:06:05;;;;;;;15.82;3.20;;;15.00;99.90;;;;;;5073367;28;20477;-71
2022/09/19 05:08:32;;;;;;;12.55;2.10;;;15.00;99.90;;;;;;5073444;28;20021;-71
2022/09/19 05:11:00;;;;;;;4.93;1.65;;;15.00;99.90;;;;;;5073414;28;20366;-70
2022/09/19 05:13:28;;;;;;;9.45;2.35;;;15.00;99.90;;;;;;5072905;28;20478;-70
2022/09/19 05:15:54;;;;;;;11.00;1.50;;;15.00;99.90;;;;;;5073219;28;20036;-70
2022/09/19 05:18:21;;;;;;;11.18;1.67;;;15.00;99.90;;;;;;5073047;28;20108;-70
2022/09/19 05:20:47;;;;;;;12.90;2.00;;;15.00;99.90;;;;;;5073198;28;20382;-70
2022/09/19 05:23:14;;;;;;;11.40;1.83;;;15.00;99.90;;;;;;5073082;28;20040;-70
2022/09/19 05:25:40;;;;;;;12.23;2.25;;;15.00;99.90;;;;;;5073286;28;20450;-70
2022/09/19 05:28:08;;;;;;;14.80;2.67;;;15.00;99.90;;;;;;5073131;28;20135;-70
2022/09/19 05:30:36;;;;;;;16.45;5.10;;;14.90;99.90;;;;;;5072560;28;20054;-70
2022/09/19 05:33:03;;;;;;;11.82;2.42;;;14.90;99.90;;;;;;5072906;28;20020;-70
2022/09/19 05:35:30;;;;;;;11.63;3.17;;;14.80;99.90;;;;;;5072603;28;20035;-69
2022/09/19 05:37:57;;;;;;;11.60;2.17;;;14.90;99.90;;;;;;5072811;28;20078;-69
2022/09/19 05:40:23;;;;;;;9.05;2.35;;;14.80;99.90;;;;;;5072501;28;20414;-69
2022/09/19 05:42:53;;;;;;;13.90;3.53;;;14.80;99.90;;;;;;5072132;28;20401;-70
2022/09/19 05:45:20;;;;;;;13.48;2.30;;;14.80;99.90;;;;;;5072573;28;20067;-70
2022/09/19 05:47:46;;;;;;;12.85;3.78;;;14.70;99.90;;;;;;5072670;28;20394;-70
2022/09/19 05:50:14;;;;;;;17.48;3.65;;;14.70;99.90;;;;;;5072515;28;20028;-70
2022/09/19 05:55:26;;;;;;;12.77;2.97;;;14.60;99.90;;;;;;5072472;28;20050;-69
2022/09/19 05:57:55;;;;;;;13.93;2.58;;;14.60;99.90;;;;;;5072564;28;20385;-70
2022/09/19 06:00:23;;;;;;;14.70;2.50;;;14.60;99.90;;;;;;5070871;28;20397;-70
2022/09/19 06:02:52;;;;;;;12.30;2.05;;;14.50;99.90;;;;;;5031833;28;20041;-70
2022/09/19 06:05:18;;;;;;;12.90;3.30;;;14.60;99.90;;;;;;5052670;28;20489;-69
2022/09/19 06:07:43;;;;;;;17.60;2.90;;;14.50;99.90;;;;;;5071856;28;20009;-69
2022/09/19 06:10:09;;;;;;;18.92;2.60;;;14.50;99.90;;;;;;5071224;28;20044;-70
2022/09/19 06:12:35;;;;;;;13.18;2.33;;;14.40;99.90;;;;;;5055922;28;20035;-70
2022/09/19 06:15:00;;;;;;;10.57;2.35;;;14.40;99.90;;;;;;5058581;28;20025;-70
2022/09/19 06:17:27;;;;;;;12.68;2.40;;;14.40;99.90;;;;;;5072003;28;20676;-70
2022/09/19 06:19:52;;;;;;;19.13;2.55;;;14.40;99.90;;;;;;5071882;28;20023;-70
2022/09/19 06:22:18;;;;;;;16.80;2.47;;;14.40;99.90;;;;;;5061821;28;20037;-70
2022/09/19 06:24:43;;;;;;;9.65;2.25;;;14.40;99.90;;;;;;5062725;28;20033;-70
2022/09/19 06:27:09;;;;;;;16.45;2.97;;;14.40;99.90;;;;;;5060726;28;20063;-71
2022/09/19 06:29:35;;;;;;;18.63;3.20;;;14.50;99.90;;;;;;5059659;28;20031;-70
2022/09/19 06:32:02;;;;;;;20.27;4.88;;;14.60;99.90;;;;;;5060287;28;20071;-70
2022/09/19 06:34:28;;;;;;;15.20;3.53;;;14.70;99.90;;;;;;5062548;28;20492;-72
2022/09/19 06:36:53;;;;;;;15.10;2.88;;;14.80;99.90;;;;;;5060950;28;20099;-72
2022/09/19 06:39:19;;;;;;;15.70;4.13;;;14.70;99.90;;;;;;5061122;28;20029;-72
2022/09/19 06:41:47;;;;;;;10.80;2.55;;;14.60;99.90;;;;;;5063507;28;20448;-72
2022/09/19 06:44:13;;;;;;;13.75;2.63;;;14.60;99.90;;;;;;5062447;28;20035;-73
2022/09/19 06:46:39;;;;;;;11.05;2.35;;;14.50;99.90;;;;;;5065100;28;20040;-72
2022/09/19 06:49:07;;;;;;;13.13;2.42;;;14.40;99.90;;;;;;5066218;28;20081;-72
2022/09/19 06:51:33;;;;;;;8.60;1.73;;;14.30;99.90;;;;;;5064748;28;20021;-72
2022/09/19 06:53:59;;;;;;;17.77;3.70;;;14.30;99.90;;;;;;5064863;28;20058;-72
2022/09/19 06:56:25;;;;;;;14.55;2.53;;;14.30;99.90;;;;;;5066659;28;20062;-71
2022/09/19 06:58:50;;;;;;;9.63;1.95;;;14.30;99.90;;;;;;5064486;28;20544;-71
2022/09/19 07:01:16;;;;;;;8.93;1.65;;;14.40;99.90;;;;;;5065602;28;20029;-71
2022/09/19 07:03:42;;;;;;;10.30;2.35;;;14.60;99.90;;;;;;5064334;28;20037;-72
2022/09/19 07:06:08;;;;;;;13.40;2.67;;;14.80;99.90;;;;;;5063706;28;20021;-71
2022/09/19 07:08:33;;;;;;;10.27;2.38;;;15.00;99.90;;;;;;5065200;28;20108;-71
2022/09/19 07:10:59;;;;;;;5.40;1.05;;;15.20;99.90;;;;;;5065484;28;20056;-71
2022/09/19 07:13:24;;;;;;;11.18;1.90;;;15.40;99.90;;;;;;5062391;28;20060;-71
2022/09/19 07:15:50;;;;;;;12.05;2.63;;;15.60;99.90;;;;;;5066511;28;20017;-71
2022/09/19 07:18:15;;;;;;;9.90;1.90;;;15.70;99.90;;;;;;5064811;28;20017;-71
2022/09/19 07:20:43;;;;;;;10.63;1.90;;;15.90;99.90;;;;;;5064342;28;20489;-71
2022/09/19 07:23:17;;;;;;;13.07;2.03;;;16.00;99.90;;;;;;5065906;28;20047;-71
2022/09/19 07:25:43;;;;;;;9.43;2.35;;;16.00;99.90;;;;;;5065755;28;20415;-71
2022/09/19 07:28:12;;;;;;;10.98;2.10;;;16.10;99.90;;;;;;5063685;28;20029;-71
2022/09/19 07:30:38;;;;;;;9.50;2.17;;;16.10;99.90;;;;;;5064719;28;20036;-70
2022/09/19 07:33:07;;;;;;;11.70;1.77;;;16.10;99.90;;;;;;5065524;28;20044;-71
2022/09/19 07:35:35;;;;;;;8.85;2.08;;;16.10;99.90;;;;;;5061666;28;20037;-71
2022/09/19 07:38:01;;;;;;;14.38;2.25;;;16.20;99.90;;;;;;5064075;28;20120;-70
2022/09/19 07:40:27;;;;;;;10.93;1.67;;;16.30;99.90;;;;;;5065623;28;20892;-70
2022/09/19 07:43:00;;;;;;;9.40;2.03;;;16.40;99.90;;;;;;5063946;28;20037;-71
2022/09/19 07:45:26;;;;;;;8.43;1.80;;;16.50;99.90;;;;;;5063474;28;20076;-70
2022/09/19 07:47:51;;;;;;;11.73;2.05;;;16.60;99.90;;;;;;5065365;28;20461;-70
2022/09/19 07:50:18;;;;;;;12.45;2.03;;;16.80;99.90;;;;;;5064197;28;20336;-70
2022/09/19 07:52:48;;;;;;;9.57;1.80;;;16.90;99.90;;;;;;5063474;28;20028;-70
2022/09/19 07:55:14;;;;;;;10.35;1.90;;;16.80;99.90;;;;;;5052969;28;20021;-70
2022/09/19 07:57:52;;;;;;;9.25;1.77;;;16.80;99.90;;;;;;5060326;28;20451;-70
2022/09/19 08:00:18;;;;;;;9.68;1.98;;;16.80;99.90;;;;;;5062407;28;20033;-70
2022/09/19 08:02:51;;;;;;;14.45;2.08;;;17.00;99.90;;;;;;5062930;28;20047;-69
2022/09/19 08:05:17;;;;;;;10.18;1.55;;;17.40;99.90;;;;;;5065321;28;20047;-70
2022/09/19 08:07:43;;;;;;;11.02;1.90;;;17.70;99.90;;;;;;5074407;28;20029;-71
2022/09/19 08:10:09;;;;;;;8.98;1.90;;;17.80;99.90;;;;;;5054023;28;20053;-71
2022/09/19 08:12:34;;;;;;;9.20;2.00;;;17.80;99.90;;;;;;5050494;28;20174;-72
2022/09/19 08:15:00;;;;;;;10.35;1.65;;;17.40;99.90;;;;;;5053170;28;20452;-71
2022/09/19 08:17:26;;;;;;;8.18;1.70;;;16.90;99.90;;;;;;5054225;28;20035;-71
2022/09/19 08:19:52;;;;;;;10.55;2.22;;;16.50;99.90;;;;;;5053124;28;20057;-71
2022/09/19 08:22:17;;;;;;;8.70;1.92;;;16.10;99.90;;;;;;5054066;28;20084;-71
2022/09/19 08:24:43;;;;;;;12.25;1.80;;;15.80;99.90;;;;;;5054163;28;20041;-72
2022/09/19 08:27:10;;;;;;;12.27;2.72;;;15.60;99.90;;;;;;5054086;28;20033;-72
2022/09/19 08:29:38;;;;;;;10.32;1.63;;;15.40;99.90;;;;;;5054246;28;20546;-71
2022/09/19 08:32:03;;;;;;;11.05;3.17;;;15.30;99.90;;;;;;5053418;28;20371;-71
2022/09/19 08:34:29;;;;;;;8.45;1.52;;;15.30;99.90;;;;;;5053709;28;20029;-70
2022/09/19 08:36:58;;;;;;;12.98;3.17;;;15.30;99.90;;;;;;5053983;28;20373;-71
2022/09/19 08:39:25;;;;;;;13.38;2.90;;;15.40;99.90;;;;;;5053947;28;20028;-70
2022/09/19 08:42:20;;;;;;;10.85;2.97;;;15.70;99.90;;;;;;5050688;28;20025;-71
2022/09/19 08:44:49;;;;;;;21.83;6.45;;;16.10;99.90;;;;;;5035995;28;20060;-70
2022/09/19 08:47:23;;;;;;;11.65;2.35;;;16.40;99.90;;;;;;5033354;28;20031;-71
2022/09/19 08:49:56;;;;;;;11.85;2.75;;;16.70;99.90;;;;;;5034160;28;20037;-71
2022/09/19 08:52:25;;;;;;;12.13;4.05;;;16.90;99.90;;;;;;5033923;28;20029;-71
2022/09/19 08:54:54;;;;;;;14.50;4.07;;;17.20;99.90;;;;;;5033745;28;20026;-70
2022/09/19 08:57:42;;;;;;;12.32;3.28;;;17.60;99.90;;;;;;5033906;28;20064;-70
2022/09/19 09:00:16;;;;;;;12.70;3.15;;;18.30;99.90;;;;;;5033039;28;20060;-70
2022/09/19 09:02:51;;;;;;;10.73;3.67;;;18.60;99.90;;;;;;5033294;28;20091;-71
2022/09/19 09:05:44;;;;;;;12.25;2.17;;;18.60;99.90;;;;;;5033036;28;20034;-70
2022/09/19 09:08:13;;;;;;;11.30;2.80;;;18.90;99.90;;;;;;5033302;28;20025;-71
2022/09/19 09:10:53;;;;;;;7.00;1.70;;;20.00;99.90;;;;;;5033425;28;20053;-70
2022/09/19 09:13:44;;;;;;;7.10;1.85;;;21.10;98.30;;;;;;5033082;28;20035;-70
2022/09/19 09:16:19;;;;;;;12.38;2.17;;;22.40;96.70;;;;;;5032809;28;20424;-71
2022/09/19 09:19:10;;;;;;;17.05;4.55;;;23.10;94.80;;;;;;5032955;28;20422;-70
2022/09/19 09:21:41;;;;;;;13.55;3.08;;;22.90;95.10;;;;;;5033413;28;20037;-70
2022/09/19 09:24:20;;;;;;;9.50;2.65;;;22.90;95.10;;;;;;5046487;28;20041;-70
2022/09/19 09:26:49;;;;;;;10.93;2.90;;;22.80;94.40;;;;;;5052869;28;20037;-69
2022/09/19 09:29:25;;;;;;;12.05;3.65;;;22.50;94.90;;;;;;5052842;28;20029;-70
2022/09/19 09:31:59;;;;;;;10.93;2.55;;;21.90;95.00;;;;;;5052599;28;20467;-70
2022/09/19 09:34:43;;;;;;;11.68;2.45;;;21.50;95.90;;;;;;5052523;28;20383;-70
2022/09/19 09:37:20;;;;;;;12.30;2.25;;;21.40;96.90;;;;;;5051779;28;20347;-70
2022/09/19 09:43:07;;;;;;;11.45;2.20;;;22.20;94.80;;;;;;5042078;28;20074;-70
2022/09/19 09:45:43;;;;;;;13.00;2.20;;;21.70;95.40;;;;;;5052583;28;20044;-69
2022/09/19 09:48:30;;;;;;;10.23;2.08;;;21.20;96.10;;;;;;5053116;28;20029;-69
2022/09/19 09:51:35;;;;;;;15.35;2.63;;;20.80;97.10;;;;;;5052667;28;20056;-70
2022/09/19 09:57:18;;;;;;;13.43;2.22;;;20.00;98.10;;;;;;5052292;28;20082;-69
2022/09/19 10:05:48;;;;;;;5.88;1.65;;;20.30;97.00;;;;;;5052669;28;20071;-71
2022/09/19 10:08:27;;;;;;;8.45;1.92;;;20.20;99.20;;;;;;5052155;28;20025;-72
2022/09/19 10:11:10;;;;;;;9.25;1.92;;;20.00;99.80;;;;;;5051953;28;20099;-71
2022/09/19 10:13:46;;;;;;;6.95;1.67;;;19.40;99.90;;;;;;5052378;28;20036;-71
2022/09/19 10:16:14;;;;;;;12.75;2.58;;;19.00;99.90;;;;;;5051381;28;20033;-71
2022/09/19 10:18:51;;;;;;;10.70;1.50;;;18.70;99.90;;;;;;5050615;28;20041;-71
2022/09/19 10:21:17;;;;;;;6.28;1.40;;;18.40;99.90;;;;;;5052173;28;20056;-70
2022/09/19 10:23:45;;;;;;;11.55;2.03;;;18.20;99.90;;;;;;5057464;28;20036;-70
2022/09/19 10:26:15;;;;;;;12.52;1.33;;;18.10;99.90;;;;;;5053526;28;20382;-70
2022/09/19 10:28:59;;;;;;;9.30;2.00;;;18.10;99.90;;;;;;5052058;28;20449;-70
2022/09/19 10:31:34;;;;;;;7.03;1.52;;;18.70;99.90;;;;;;5052013;28;20025;-70
2022/09/19 10:34:14;;;;;;;13.77;1.63;;;20.10;99.90;;;;;;5052331;28;20032;-70
2022/09/19 10:36:47;;;;;;;8.15;1.20;;;20.80;99.90;;;;;;5052102;28;20028;-70
2022/09/19 10:39:14;;;;;;;6.22;1.60;;;21.50;99.10;;;;;;5052050;28;20474;-71
2022/09/19 10:41:42;;;;;;;6.20;1.30;;;22.50;96.00;;;;;;5052164;28;20040;-71
2022/09/19 10:44:22;;;;;;;5.90;1.10;;;23.10;94.80;;;;;;5052092;28;20037;-70
2022/09/19 10:46:55;;;;;;;4.93;1.17;;;23.70;93.50;;;;;;5051742;28;20028;-70
2022/09/19 10:49:29;;;;;;;5.78;1.55;;;23.80;93.00;;;;;;5052023;28;20047;-70
2022/09/19 10:51:59;;;;;;;2.40;1.00;;;23.90;92.70;;;;;;5051860;28;20036;-70
2022/09/19 10:54:38;;;;;;;5.95;1.30;;;23.90;92.10;;;;;;5058811;28;20032;-70
2022/09/19 10:57:05;;;;;;;10.40;3.40;;;24.00;91.70;;;;;;5059218;28;20040;-70
2022/09/19 10:59:38;;;;;;;13.35;2.63;;;23.90;90.90;;;;;;5060339;28;20029;-70
2022/09/19 11:02:09;;;;;;;9.68;3.00;;;24.10;91.20;;;;;;5059091;28;20028;-70
2022/09/19 11:04:36;;;;;;;5.90;1.98;;;24.20;90.50;;;;;;5060250;28;20029;-70
2022/09/19 11:07:16;;;;;;;5.80;2.33;;;23.90;90.80;;;;;;5061520;28;20036;-70
2022/09/19 11:09:43;;;;;;;16.02;5.40;;;23.60;91.30;;;;;;5058526;28;20049;-69
2022/09/19 11:12:15;;;;;;;12.32;4.75;;;23.40;91.60;;;;;;5060735;28;20028;-70
2022/09/19 11:14:47;;;;;;;12.20;3.53;;;23.20;91.40;;;;;;5058311;28;20059;-70
2022/09/19 11:17:37;;;;;;;8.02;3.25;;;23.00;91.80;;;;;;5060075;28;20135;-69
2022/09/19 11:20:39;;;;;;;6.00;1.73;;;22.80;91.30;;;;;;5056834;28;20121;-70
2022/09/19 11:23:28;;;;;;;6.70;1.70;;;22.50;91.80;;;;;;5057506;28;20095;-69
2022/09/19 11:26:18;;;;;;;7.63;2.08;;;22.30;91.80;;;;;;5051494;28;20025;-69
2022/09/19 11:28:59;;;;;;;8.52;2.38;;;21.90;92.50;;;;;;5054009;28;20032;-69
2022/09/19 11:31:44;;;;;;;14.45;3.58;;;21.40;93.10;;;;;;5055076;28;20021;-69
2022/09/19 11:34:12;;;;;;;8.27;1.60;;;21.10;93.40;;;;;;5059617;28;20033;-70
2022/09/19 11:37:07;;;;;;;6.75;1.05;;;20.90;93.90;;;;;;5075049;28;20025;-70
2022/09/19 11:39:54;;;;;;;8.85;1.92;;;21.00;94.30;;;;;;5074974;28;20021;-69
2022/09/19 11:42:54;;;;;;;6.47;0.82;;;21.60;94.00;;;;;;5075049;28;20433;-70
2022/09/19 11:45:22;;;;;;;5.60;1.60;;;22.40;92.70;;;;;;5074924;28;20036;-70
2022/09/19 11:48:11;;;;;;;9.80;1.77;;;23.70;91.90;;;;;;5074981;28;20036;-70
2022/09/19 11:50:50;;;;;;;5.20;1.75;;;25.00;90.80;;;;;;5074962;28;20062;-70
2022/09/19 11:53:39;;;;;;;6.53;1.13;;;26.00;87.60;;;;;;5074442;28;20032;-69
2022/09/19 11:56:13;;;;;;;5.97;1.60;;;25.40;89.10;;;;;;5074935;28;20017;-71
2022/09/19 11:59:02;;;;;;;7.78;1.23;;;24.30;91.60;;;;;;5075059;28;20029;-71
2022/09/19 12:01:49;;;;;;;9.15;1.67;;;22.80;93.80;;;;;;5052095;28;20024;-71
2022/09/19 12:04:48;;;;;;;11.15;2.45;;;21.30;95.90;;;;;;5054406;28;20025;-70
2022/09/19 12:07:21;;;;;;;9.98;2.08;;;20.20;98.30;;;;;;5054630;28;20490;-70
2022/09/19 12:10:19;;;;;;;9.07;1.90;;;19.40;99.90;;;;;;5054580;28;20179;-70
2022/09/19 12:12:54;;;;;;;6.30;1.58;;;18.80;99.90;;;;;;5050247;28;20102;-70
2022/09/19 12:15:27;;;;;;;9.35;1.63;;;18.30;99.90;;;;;;5054397;28;20025;-70
2022/09/19 12:18:01;;;;;;;10.00;1.58;;;17.80;99.90;;;;;;5054428;28;20397;-70
2022/09/19 12:20:37;;;;;;;10.88;1.52;;;17.50;99.90;;;;;;5054634;28;20106;-71
2022/09/19 12:26:09;;;;;;;9.32;1.42;;;18.20;99.90;;;;;;5054231;28;20465;-70
2022/09/19 12:29:06;;;;;;;9.70;1.80;;;19.50;99.90;;;;;;5054348;28;20044;-70
2022/09/19 12:31:38;;;;;;;5.88;1.30;;;20.40;99.60;;;;;;5051670;28;20028;-70
2022/09/19 12:34:14;;;;;;;8.27;1.58;;;21.30;99.20;;;;;;5051669;28;20135;-70
2022/09/19 12:36:55;;;;;;;6.05;1.10;;;22.10;97.60;;;;;;5052684;28;20060;-70
2022/09/19 12:39:55;;;;;;;6.07;1.20;;;22.80;96.30;;;;;;5051888;28;20033;-70
2022/09/19 12:42:31;;;;;;;7.28;1.38;;;23.10;94.10;;;;;;5051843;28;20033;-70
2022/09/19 12:45:15;;;;;;;9.40;1.73;;;22.90;95.00;;;;;;5052527;28;20078;-70
2022/09/19 12:48:04;;;;;;;5.43;1.60;;;23.00;95.40;;;;;;5051827;28;20437;-70
2022/09/19 12:50:40;;;;;;;7.18;1.15;;;23.10;94.50;;;;;;5052634;28;20285;-70
2022/09/19 12:53:44;;;;;;;9.63;1.70;;;23.00;93.20;;;;;;5051527;28;20035;-70
2022/09/19 12:56:20;;;;;;;6.68;1.35;;;22.90;94.30;;;;;;5052306;28;20036;-70
2022/09/19 12:59:15;;;;;;;6.72;1.60;;;23.00;93.30;;;;;;5052827;28;20066;-70
2022/09/19 13:02:12;;;;;;;7.72;1.58;;;22.80;93.40;;;;;;5040329;28;20037;-71
2022/09/19 13:04:52;;;;;;;8.52;1.58;;;22.70;93.70;;;;;;5053524;28;20036;-70
2022/09/19 13:07:31;;;;;;;5.75;1.23;;;22.50;93.90;;;;;;5053483;28;20501;-70
2022/09/19 13:10:36;;;;;;;6.15;1.40;;;22.50;94.00;;;;;;5053462;28;20057;-70
2022/09/19 13:13:11;;;;;;;10.07;1.80;;;22.50;94.20;;;;;;5041027;28;20564;-71
2022/09/19 13:15:54;;;;;;;9.00;1.63;;;22.60;94.70;;;;;;5053563;28;20055;-70
2022/09/19 13:24:20;;;;;;;11.02;1.90;;;22.40;94.20;;;;;;5052968;28;20085;-70
2022/09/19 13:26:54;;;;;;;11.13;1.95;;;22.10;95.30;;;;;;5053258;28;20370;-71
2022/09/19 13:29:29;;;;;;;9.95;1.38;;;22.10;95.10;;;;;;5052890;28;20048;-71
2022/09/19 13:31:58;;;;;;;5.18;0.95;;;22.10;94.20;;;;;;5053070;28;20021;-70
2022/09/19 13:34:33;;;;;;;4.40;1.00;;;22.00;94.00;;;;;;5052907;28;20070;-70
2022/09/19 13:37:04;;;;;;;9.02;1.17;;;21.70;93.70;;;;;;5051545;28;20396;-70
2022/09/19 13:39:57;;;;;;;5.45;0.90;;;21.40;94.70;;;;;;5053137;28;20162;-71